sensor_id;sensor_type;location;lat;lon;timestamp;P1;durP1;ratioP1;P2;durP2;ratioP2
6517;SDS011;3292;48.944;9.240;2023-06-01T00:00:50;5.30;;;3.60;;
6517;SDS011;3292;48.944;9.240;2023-06-01T00:03:21;4.63;;;3.50;;
6517;SDS011;3292;48.944;9.240;2023-06-01T00:05:48;5.73;;;3.80;;
6517;SDS011;3292;48.944;9.240;2023-06-01T00:08:15;5.20;;;3.80;;
6517;SDS011;3292;48.944;9.240;2023-06-01T00:10:43;5.33;;;3.87;;
6517;SDS011;3292;48.944;9.240;2023-06-01T00:13:10;4.40;;;3.53;;
6517;SDS011;3292;48.944;9.240;2023-06-01T00:15:36;5.37;;;4.33;;
6517;SDS011;3292;48.944;9.240;2023-06-01T00:18:05;7.23;;;4.00;;
6517;SDS011;3292;48.944;9.240;2023-06-01T00:20:33;4.60;;;3.87;;
6517;SDS011;3292;48.944;9.240;2023-06-01T00:23:00;4.37;;;3.63;;
6517;SDS011;3292;48.944;9.240;2023-06-01T00:25:28;4.80;;;3.60;;
6517;SDS011;3292;48.944;9.240;2023-06-01T00:27:56;7.17;;;3.93;;
6517;SDS011;3292;48.944;9.240;2023-06-01T00:30:23;5.40;;;3.83;;
6517;SDS011;3292;48.944;9.240;2023-06-01T00:32:50;4.83;;;4.20;;
6517;SDS011;3292;48.944;9.240;2023-06-01T00:35:17;5.83;;;4.20;;
6517;SDS011;3292;48.944;9.240;2023-06-01T00:37:46;6.67;;;4.00;;
6517;SDS011;3292;48.944;9.240;2023-06-01T00:40:13;7.70;;;4.90;;
6517;SDS011;3292;48.944;9.240;2023-06-01T00:42:40;5.63;;;4.40;;
6517;SDS011;3292;48.944;9.240;2023-06-01T00:45:08;7.30;;;4.40;;
6517;SDS011;3292;48.944;9.240;2023-06-01T00:47:38;6.40;;;4.33;;
6517;SDS011;3292;48.944;9.240;2023-06-01T00:50:08;5.60;;;4.20;;
6517;SDS011;3292;48.944;9.240;2023-06-01T00:52:36;9.03;;;4.70;;
6517;SDS011;3292;48.944;9.240;2023-06-01T00:55:04;10.70;;;4.67;;
6517;SDS011;3292;48.944;9.240;2023-06-01T00:57:32;5.73;;;4.60;;
6517;SDS011;3292;48.944;9.240;2023-06-01T00:59:59;9.20;;;4.73;;
6517;SDS011;3292;48.944;9.240;2023-06-01T01:02:34;5.27;;;4.20;;
6517;SDS011;3292;48.944;9.240;2023-06-01T01:05:03;9.57;;;4.90;;
6517;SDS011;3292;48.944;9.240;2023-06-01T01:07:35;7.00;;;4.50;;
6517;SDS011;3292;48.944;9.240;2023-06-01T01:10:13;7.47;;;4.67;;
6517;SDS011;3292;48.944;9.240;2023-06-01T01:12:47;6.90;;;4.47;;
6517;SDS011;3292;48.944;9.240;2023-06-01T01:15:17;5.47;;;4.30;;
6517;SDS011;3292;48.944;9.240;2023-06-01T01:17:54;5.70;;;4.00;;
6517;SDS011;3292;48.944;9.240;2023-06-01T01:20:27;7.23;;;4.33;;
6517;SDS011;3292;48.944;9.240;2023-06-01T01:23:06;6.80;;;4.43;;
6517;SDS011;3292;48.944;9.240;2023-06-01T01:28:37;8.13;;;4.33;;
6517;SDS011;3292;48.944;9.240;2023-06-01T01:31:09;6.77;;;4.30;;
6517;SDS011;3292;48.944;9.240;2023-06-01T01:33:38;5.63;;;3.80;;
6517;SDS011;3292;48.944;9.240;2023-06-01T01:36:07;4.70;;;3.90;;
6517;SDS011;3292;48.944;9.240;2023-06-01T01:38:36;6.33;;;4.20;;
6517;SDS011;3292;48.944;9.240;2023-06-01T01:41:03;6.30;;;4.00;;
6517;SDS011;3292;48.944;9.240;2023-06-01T01:43:30;5.53;;;3.93;;
6517;SDS011;3292;48.944;9.240;2023-06-01T01:46:02;4.73;;;3.70;;
6517;SDS011;3292;48.944;9.240;2023-06-01T01:48:35;6.03;;;3.73;;
6517;SDS011;3292;48.944;9.240;2023-06-01T01:51:07;6.73;;;3.30;;
6517;SDS011;3292;48.944;9.240;2023-06-01T01:53:37;6.67;;;4.07;;
6517;SDS011;3292;48.944;9.240;2023-06-01T01:56:07;7.53;;;4.07;;
6517;SDS011;3292;48.944;9.240;2023-06-01T01:58:34;6.07;;;3.47;;
6517;SDS011;3292;48.944;9.240;2023-06-01T02:01:03;6.27;;;3.80;;
6517;SDS011;3292;48.944;9.240;2023-06-01T02:03:30;8.80;;;3.97;;
6517;SDS011;3292;48.944;9.240;2023-06-01T02:05:57;6.03;;;3.80;;
6517;SDS011;3292;48.944;9.240;2023-06-01T02:08:24;6.07;;;4.07;;
6517;SDS011;3292;48.944;9.240;2023-06-01T02:10:51;5.77;;;4.13;;
6517;SDS011;3292;48.944;9.240;2023-06-01T02:13:18;5.47;;;4.13;;
6517;SDS011;3292;48.944;9.240;2023-06-01T02:15:44;5.40;;;4.00;;
6517;SDS011;3292;48.944;9.240;2023-06-01T02:18:12;4.87;;;3.80;;
6517;SDS011;3292;48.944;9.240;2023-06-01T02:20:41;4.77;;;4.03;;
6517;SDS011;3292;48.944;9.240;2023-06-01T02:23:07;4.90;;;3.97;;
6517;SDS011;3292;48.944;9.240;2023-06-01T02:25:35;7.17;;;4.03;;
6517;SDS011;3292;48.944;9.240;2023-06-01T02:28:01;5.37;;;4.20;;
6517;SDS011;3292;48.944;9.240;2023-06-01T02:30:28;5.27;;;4.00;;
6517;SDS011;3292;48.944;9.240;2023-06-01T02:32:55;6.07;;;4.10;;
6517;SDS011;3292;48.944;9.240;2023-06-01T02:35:23;6.87;;;4.77;;
6517;SDS011;3292;48.944;9.240;2023-06-01T02:37:50;5.73;;;4.10;;
6517;SDS011;3292;48.944;9.240;2023-06-01T02:40:17;6.93;;;4.20;;
6517;SDS011;3292;48.944;9.240;2023-06-01T02:42:44;6.53;;;4.27;;
6517;SDS011;3292;48.944;9.240;2023-06-01T02:45:10;6.70;;;4.40;;
6517;SDS011;3292;48.944;9.240;2023-06-01T02:47:37;6.77;;;4.13;;
6517;SDS011;3292;48.944;9.240;2023-06-01T02:50:04;8.17;;;4.40;;
6517;SDS011;3292;48.944;9.240;2023-06-01T02:52:33;7.03;;;4.40;;
6517;SDS011;3292;48.944;9.240;2023-06-01T02:55:01;6.93;;;4.07;;
6517;SDS011;3292;48.944;9.240;2023-06-01T02:57:27;7.03;;;3.97;;
6517;SDS011;3292;48.944;9.240;2023-06-01T02:59:54;6.07;;;4.30;;
6517;SDS011;3292;48.944;9.240;2023-06-01T03:02:21;7.83;;;4.20;;
6517;SDS011;3292;48.944;9.240;2023-06-01T03:04:48;5.90;;;4.33;;
6517;SDS011;3292;48.944;9.240;2023-06-01T03:07:14;6.40;;;4.20;;
6517;SDS011;3292;48.944;9.240;2023-06-01T03:09:43;5.53;;;4.63;;
6517;SDS011;3292;48.944;9.240;2023-06-01T03:12:10;5.47;;;4.47;;
6517;SDS011;3292;48.944;9.240;2023-06-01T03:14:37;7.50;;;4.70;;
6517;SDS011;3292;48.944;9.240;2023-06-01T03:17:04;5.07;;;4.20;;
6517;SDS011;3292;48.944;9.240;2023-06-01T03:19:31;6.03;;;4.20;;
6517;SDS011;3292;48.944;9.240;2023-06-01T03:21:58;6.57;;;4.43;;
6517;SDS011;3292;48.944;9.240;2023-06-01T03:24:25;6.73;;;4.63;;
6517;SDS011;3292;48.944;9.240;2023-06-01T03:26:54;6.67;;;4.33;;
6517;SDS011;3292;48.944;9.240;2023-06-01T03:29:21;6.07;;;4.40;;
6517;SDS011;3292;48.944;9.240;2023-06-01T03:31:47;5.87;;;4.53;;
6517;SDS011;3292;48.944;9.240;2023-06-01T03:34:14;6.27;;;4.47;;
6517;SDS011;3292;48.944;9.240;2023-06-01T03:36:41;6.43;;;4.20;;
6517;SDS011;3292;48.944;9.240;2023-06-01T03:39:13;8.10;;;4.67;;
6517;SDS011;3292;48.944;9.240;2023-06-01T03:41:41;6.03;;;4.27;;
6517;SDS011;3292;48.944;9.240;2023-06-01T03:44:09;6.60;;;5.00;;
6517;SDS011;3292;48.944;9.240;2023-06-01T03:46:36;5.50;;;4.60;;
6517;SDS011;3292;48.944;9.240;2023-06-01T03:49:03;5.70;;;4.70;;
6517;SDS011;3292;48.944;9.240;2023-06-01T03:51:30;6.17;;;4.00;;
6517;SDS011;3292;48.944;9.240;2023-06-01T03:53:58;7.50;;;4.73;;
6517;SDS011;3292;48.944;9.240;2023-06-01T03:56:24;7.10;;;4.60;;
6517;SDS011;3292;48.944;9.240;2023-06-01T03:58:52;5.50;;;4.87;;
6517;SDS011;3292;48.944;9.240;2023-06-01T04:01:20;6.53;;;4.57;;
6517;SDS011;3292;48.944;9.240;2023-06-01T04:03:47;7.00;;;4.53;;
6517;SDS011;3292;48.944;9.240;2023-06-01T04:06:15;4.60;;;4.20;;
6517;SDS011;3292;48.944;9.240;2023-06-01T04:08:43;5.03;;;4.33;;
6517;SDS011;3292;48.944;9.240;2023-06-01T04:11:14;6.73;;;4.93;;
6517;SDS011;3292;48.944;9.240;2023-06-01T04:13:41;5.57;;;4.40;;
6517;SDS011;3292;48.944;9.240;2023-06-01T04:16:08;7.27;;;4.73;;
6517;SDS011;3292;48.944;9.240;2023-06-01T04:18:36;7.30;;;4.67;;
6517;SDS011;3292;48.944;9.240;2023-06-01T04:21:03;5.90;;;4.13;;
6517;SDS011;3292;48.944;9.240;2023-06-01T04:23:30;5.87;;;4.70;;
6517;SDS011;3292;48.944;9.240;2023-06-01T04:25:57;6.63;;;4.60;;
6517;SDS011;3292;48.944;9.240;2023-06-01T04:28:24;8.43;;;4.73;;
6517;SDS011;3292;48.944;9.240;2023-06-01T04:30:52;6.23;;;4.67;;
6517;SDS011;3292;48.944;9.240;2023-06-01T04:33:19;6.93;;;5.03;;
6517;SDS011;3292;48.944;9.240;2023-06-01T04:35:48;7.43;;;4.77;;
6517;SDS011;3292;48.944;9.240;2023-06-01T04:38:18;5.10;;;4.60;;
6517;SDS011;3292;48.944;9.240;2023-06-01T04:40:44;8.27;;;4.60;;
6517;SDS011;3292;48.944;9.240;2023-06-01T04:43:11;6.60;;;4.70;;
6517;SDS011;3292;48.944;9.240;2023-06-01T04:45:38;5.97;;;4.80;;
6517;SDS011;3292;48.944;9.240;2023-06-01T04:48:06;5.93;;;5.10;;
6517;SDS011;3292;48.944;9.240;2023-06-01T04:50:33;5.77;;;4.50;;
6517;SDS011;3292;48.944;9.240;2023-06-01T04:53:02;6.00;;;4.60;;
6517;SDS011;3292;48.944;9.240;2023-06-01T04:55:29;9.40;;;4.90;;
6517;SDS011;3292;48.944;9.240;2023-06-01T04:57:56;8.60;;;5.70;;
6517;SDS011;3292;48.944;9.240;2023-06-01T05:00:23;7.20;;;5.43;;
6517;SDS011;3292;48.944;9.240;2023-06-01T05:02:50;7.83;;;6.20;;
6517;SDS011;3292;48.944;9.240;2023-06-01T05:05:17;9.87;;;6.53;;
6517;SDS011;3292;48.944;9.240;2023-06-01T05:07:44;10.07;;;6.20;;
6517;SDS011;3292;48.944;9.240;2023-06-01T05:10:12;9.83;;;6.17;;
6517;SDS011;3292;48.944;9.240;2023-06-01T05:12:39;7.67;;;5.97;;
6517;SDS011;3292;48.944;9.240;2023-06-01T05:15:07;12.83;;;6.17;;
6517;SDS011;3292;48.944;9.240;2023-06-01T05:17:36;8.53;;;5.77;;
6517;SDS011;3292;48.944;9.240;2023-06-01T05:20:04;8.37;;;5.53;;
6517;SDS011;3292;48.944;9.240;2023-06-01T05:22:33;11.03;;;5.70;;
6517;SDS011;3292;48.944;9.240;2023-06-01T05:25:00;10.53;;;5.57;;
6517;SDS011;3292;48.944;9.240;2023-06-01T05:27:29;11.10;;;4.90;;
6517;SDS011;3292;48.944;9.240;2023-06-01T05:29:55;7.63;;;4.90;;
6517;SDS011;3292;48.944;9.240;2023-06-01T05:32:22;10.13;;;4.80;;
6517;SDS011;3292;48.944;9.240;2023-06-01T05:34:49;9.97;;;4.87;;
6517;SDS011;3292;48.944;9.240;2023-06-01T05:37:16;5.93;;;4.23;;
6517;SDS011;3292;48.944;9.240;2023-06-01T05:39:43;9.07;;;4.33;;
6517;SDS011;3292;48.944;9.240;2023-06-01T05:42:09;7.53;;;4.57;;
6517;SDS011;3292;48.944;9.240;2023-06-01T05:44:38;7.03;;;4.47;;
6517;SDS011;3292;48.944;9.240;2023-06-01T05:47:05;9.97;;;4.13;;
6517;SDS011;3292;48.944;9.240;2023-06-01T05:49:31;7.40;;;4.33;;
6517;SDS011;3292;48.944;9.240;2023-06-01T05:52:00;6.53;;;4.13;;
6517;SDS011;3292;48.944;9.240;2023-06-01T05:54:26;10.07;;;4.23;;
6517;SDS011;3292;48.944;9.240;2023-06-01T05:56:53;7.33;;;4.00;;
6517;SDS011;3292;48.944;9.240;2023-06-01T05:59:20;6.33;;;4.10;;
6517;SDS011;3292;48.944;9.240;2023-06-01T06:01:48;12.47;;;4.30;;
6517;SDS011;3292;48.944;9.240;2023-06-01T06:04:15;8.77;;;3.93;;
6517;SDS011;3292;48.944;9.240;2023-06-01T06:06:41;9.77;;;3.73;;
6517;SDS011;3292;48.944;9.240;2023-06-01T06:09:08;9.00;;;4.07;;
6517;SDS011;3292;48.944;9.240;2023-06-01T06:11:38;7.90;;;4.47;;
6517;SDS011;3292;48.944;9.240;2023-06-01T06:14:05;9.18;;;4.07;;
6517;SDS011;3292;48.944;9.240;2023-06-01T06:16:32;10.63;;;4.28;;
6517;SDS011;3292;48.944;9.240;2023-06-01T06:19:00;11.60;;;4.43;;
6517;SDS011;3292;48.944;9.240;2023-06-01T06:21:27;11.27;;;3.80;;
6517;SDS011;3292;48.944;9.240;2023-06-01T06:23:54;9.50;;;3.53;;
6517;SDS011;3292;48.944;9.240;2023-06-01T06:26:23;9.02;;;3.80;;
6517;SDS011;3292;48.944;9.240;2023-06-01T06:28:51;7.10;;;3.30;;
6517;SDS011;3292;48.944;9.240;2023-06-01T06:31:18;12.60;;;3.67;;
6517;SDS011;3292;48.944;9.240;2023-06-01T06:33:45;11.30;;;3.60;;
6517;SDS011;3292;48.944;9.240;2023-06-01T06:36:13;7.72;;;3.85;;
6517;SDS011;3292;48.944;9.240;2023-06-01T06:38:40;6.80;;;3.55;;
6517;SDS011;3292;48.944;9.240;2023-06-01T06:41:06;6.88;;;3.35;;
6517;SDS011;3292;48.944;9.240;2023-06-01T06:43:33;8.02;;;3.28;;
6517;SDS011;3292;48.944;9.240;2023-06-01T06:46:00;7.63;;;3.38;;
6517;SDS011;3292;48.944;9.240;2023-06-01T06:48:27;8.30;;;3.38;;
6517;SDS011;3292;48.944;9.240;2023-06-01T06:50:54;6.60;;;3.33;;
6517;SDS011;3292;48.944;9.240;2023-06-01T06:53:22;7.35;;;3.60;;
6517;SDS011;3292;48.944;9.240;2023-06-01T06:55:49;4.88;;;3.30;;
6517;SDS011;3292;48.944;9.240;2023-06-01T06:58:15;9.65;;;3.08;;
6517;SDS011;3292;48.944;9.240;2023-06-01T07:00:45;7.53;;;3.35;;
6517;SDS011;3292;48.944;9.240;2023-06-01T07:03:12;7.70;;;3.40;;
6517;SDS011;3292;48.944;9.240;2023-06-01T07:05:39;5.10;;;2.88;;
6517;SDS011;3292;48.944;9.240;2023-06-01T07:08:06;6.10;;;3.42;;
6517;SDS011;3292;48.944;9.240;2023-06-01T07:10:34;4.50;;;3.13;;
6517;SDS011;3292;48.944;9.240;2023-06-01T07:13:01;5.20;;;3.30;;
6517;SDS011;3292;48.944;9.240;2023-06-01T07:15:27;5.95;;;3.35;;
6517;SDS011;3292;48.944;9.240;2023-06-01T07:17:54;7.60;;;3.42;;
6517;SDS011;3292;48.944;9.240;2023-06-01T07:20:21;7.32;;;3.08;;
6517;SDS011;3292;48.944;9.240;2023-06-01T07:22:48;5.97;;;3.13;;
6517;SDS011;3292;48.944;9.240;2023-06-01T07:25:15;7.40;;;3.17;;
6517;SDS011;3292;48.944;9.240;2023-06-01T07:27:43;5.43;;;3.40;;
6517;SDS011;3292;48.944;9.240;2023-06-01T07:30:13;7.85;;;3.60;;
6517;SDS011;3292;48.944;9.240;2023-06-01T07:32:40;5.60;;;3.17;;
6517;SDS011;3292;48.944;9.240;2023-06-01T07:35:08;9.50;;;3.42;;
6517;SDS011;3292;48.944;9.240;2023-06-01T07:37:35;6.90;;;3.40;;
6517;SDS011;3292;48.944;9.240;2023-06-01T07:40:02;4.68;;;3.13;;
6517;SDS011;3292;48.944;9.240;2023-06-01T07:42:31;6.10;;;3.17;;
6517;SDS011;3292;48.944;9.240;2023-06-01T07:44:59;6.22;;;2.95;;
6517;SDS011;3292;48.944;9.240;2023-06-01T07:47:27;5.38;;;2.90;;
6517;SDS011;3292;48.944;9.240;2023-06-01T07:49:54;6.80;;;3.00;;
6517;SDS011;3292;48.944;9.240;2023-06-01T07:52:21;7.13;;;3.20;;
6517;SDS011;3292;48.944;9.240;2023-06-01T07:54:48;11.05;;;3.60;;
6517;SDS011;3292;48.944;9.240;2023-06-01T07:57:15;6.90;;;3.10;;
6517;SDS011;3292;48.944;9.240;2023-06-01T07:59:42;6.32;;;3.15;;
6517;SDS011;3292;48.944;9.240;2023-06-01T08:02:10;7.93;;;3.28;;
6517;SDS011;3292;48.944;9.240;2023-06-01T08:04:38;5.97;;;3.50;;
6517;SDS011;3292;48.944;9.240;2023-06-01T08:07:05;7.05;;;3.60;;
6517;SDS011;3292;48.944;9.240;2023-06-01T08:09:33;5.72;;;3.63;;
6517;SDS011;3292;48.944;9.240;2023-06-01T08:12:02;4.50;;;3.15;;
6517;SDS011;3292;48.944;9.240;2023-06-01T08:14:30;8.13;;;3.30;;
6517;SDS011;3292;48.944;9.240;2023-06-01T08:16:59;5.60;;;3.50;;
6517;SDS011;3292;48.944;9.240;2023-06-01T08:19:28;7.20;;;4.53;;
6517;SDS011;3292;48.944;9.240;2023-06-01T08:21:55;4.47;;;3.22;;
6517;SDS011;3292;48.944;9.240;2023-06-01T08:24:22;5.13;;;3.40;;
6517;SDS011;3292;48.944;9.240;2023-06-01T08:26:50;7.15;;;3.83;;
6517;SDS011;3292;48.944;9.240;2023-06-01T08:29:21;7.38;;;3.50;;
6517;SDS011;3292;48.944;9.240;2023-06-01T08:31:48;8.18;;;3.70;;
6517;SDS011;3292;48.944;9.240;2023-06-01T08:34:15;6.47;;;3.60;;
6517;SDS011;3292;48.944;9.240;2023-06-01T08:36:43;4.63;;;3.30;;
6517;SDS011;3292;48.944;9.240;2023-06-01T08:39:19;6.82;;;3.90;;
6517;SDS011;3292;48.944;9.240;2023-06-01T08:41:50;6.65;;;3.20;;
6517;SDS011;3292;48.944;9.240;2023-06-01T08:44:26;5.68;;;3.88;;
6517;SDS011;3292;48.944;9.240;2023-06-01T08:46:54;9.48;;;3.70;;
6517;SDS011;3292;48.944;9.240;2023-06-01T08:49:21;8.55;;;3.33;;
6517;SDS011;3292;48.944;9.240;2023-06-01T08:51:52;9.05;;;4.20;;
6517;SDS011;3292;48.944;9.240;2023-06-01T08:54:22;9.43;;;3.90;;
6517;SDS011;3292;48.944;9.240;2023-06-01T08:56:50;9.02;;;4.10;;
6517;SDS011;3292;48.944;9.240;2023-06-01T08:59:17;6.13;;;3.75;;
6517;SDS011;3292;48.944;9.240;2023-06-01T09:01:44;6.25;;;4.10;;
6517;SDS011;3292;48.944;9.240;2023-06-01T09:04:13;8.40;;;4.50;;
6517;SDS011;3292;48.944;9.240;2023-06-01T09:06:42;9.18;;;4.10;;
6517;SDS011;3292;48.944;9.240;2023-06-01T09:09:11;5.72;;;3.70;;
6517;SDS011;3292;48.944;9.240;2023-06-01T09:11:39;5.35;;;4.05;;
6517;SDS011;3292;48.944;9.240;2023-06-01T09:14:18;9.15;;;3.97;;
6517;SDS011;3292;48.944;9.240;2023-06-01T09:16:47;6.38;;;3.72;;
6517;SDS011;3292;48.944;9.240;2023-06-01T09:19:14;7.82;;;4.50;;
6517;SDS011;3292;48.944;9.240;2023-06-01T09:21:48;8.20;;;4.20;;
6517;SDS011;3292;48.944;9.240;2023-06-01T09:24:23;6.63;;;3.67;;
6517;SDS011;3292;48.944;9.240;2023-06-01T09:26:51;8.60;;;3.70;;
6517;SDS011;3292;48.944;9.240;2023-06-01T09:29:25;5.63;;;4.18;;
6517;SDS011;3292;48.944;9.240;2023-06-01T09:31:52;4.55;;;3.92;;
6517;SDS011;3292;48.944;9.240;2023-06-01T09:34:19;4.93;;;3.63;;
6517;SDS011;3292;48.944;9.240;2023-06-01T09:36:47;7.40;;;3.67;;
6517;SDS011;3292;48.944;9.240;2023-06-01T09:39:15;6.72;;;4.10;;
6517;SDS011;3292;48.944;9.240;2023-06-01T09:41:47;4.78;;;3.75;;
6517;SDS011;3292;48.944;9.240;2023-06-01T09:44:23;7.10;;;4.22;;
6517;SDS011;3292;48.944;9.240;2023-06-01T09:46:52;8.15;;;3.75;;
6517;SDS011;3292;48.944;9.240;2023-06-01T09:49:21;4.95;;;4.38;;
6517;SDS011;3292;48.944;9.240;2023-06-01T09:51:50;5.05;;;4.13;;
6517;SDS011;3292;48.944;9.240;2023-06-01T09:54:24;4.60;;;3.85;;
6517;SDS011;3292;48.944;9.240;2023-06-01T09:56:54;6.03;;;4.10;;
6517;SDS011;3292;48.944;9.240;2023-06-01T09:59:21;5.05;;;4.28;;
6517;SDS011;3292;48.944;9.240;2023-06-01T10:01:50;7.57;;;4.20;;
6517;SDS011;3292;48.944;9.240;2023-06-01T10:04:20;6.85;;;4.35;;
6517;SDS011;3292;48.944;9.240;2023-06-01T10:06:49;6.35;;;3.92;;
6517;SDS011;3292;48.944;9.240;2023-06-01T10:09:20;5.53;;;3.80;;
6517;SDS011;3292;48.944;9.240;2023-06-01T10:11:50;5.10;;;4.45;;
6517;SDS011;3292;48.944;9.240;2023-06-01T10:14:21;4.95;;;3.85;;
6517;SDS011;3292;48.944;9.240;2023-06-01T10:16:49;5.10;;;4.20;;
6517;SDS011;3292;48.944;9.240;2023-06-01T10:19:17;7.05;;;4.15;;
6517;SDS011;3292;48.944;9.240;2023-06-01T10:21:45;8.15;;;4.38;;
6517;SDS011;3292;48.944;9.240;2023-06-01T10:24:12;7.13;;;4.75;;
6517;SDS011;3292;48.944;9.240;2023-06-01T10:26:41;7.57;;;4.70;;
6517;SDS011;3292;48.944;9.240;2023-06-01T10:29:10;5.60;;;3.53;;
6517;SDS011;3292;48.944;9.240;2023-06-01T10:31:39;5.55;;;3.97;;
6517;SDS011;3292;48.944;9.240;2023-06-01T10:34:08;8.98;;;4.25;;
6517;SDS011;3292;48.944;9.240;2023-06-01T10:39:51;6.07;;;3.83;;
6517;SDS011;3292;48.944;9.240;2023-06-01T10:42:38;7.50;;;4.40;;
6517;SDS011;3292;48.944;9.240;2023-06-01T10:45:06;6.53;;;4.05;;
6517;SDS011;3292;48.944;9.240;2023-06-01T10:47:45;7.40;;;4.03;;
6517;SDS011;3292;48.944;9.240;2023-06-01T10:50:16;6.85;;;4.13;;
6517;SDS011;3292;48.944;9.240;2023-06-01T10:52:44;6.15;;;3.60;;
6517;SDS011;3292;48.944;9.240;2023-06-01T10:55:20;6.88;;;4.00;;
6517;SDS011;3292;48.944;9.240;2023-06-01T10:57:48;6.57;;;3.90;;
6517;SDS011;3292;48.944;9.240;2023-06-01T11:00:17;5.60;;;4.35;;
6517;SDS011;3292;48.944;9.240;2023-06-01T11:02:55;7.78;;;4.20;;
6517;SDS011;3292;48.944;9.240;2023-06-01T11:11:18;5.82;;;4.30;;
6517;SDS011;3292;48.944;9.240;2023-06-01T11:16:35;6.07;;;4.13;;
6517;SDS011;3292;48.944;9.240;2023-06-01T11:19:03;5.30;;;3.80;;
6517;SDS011;3292;48.944;9.240;2023-06-01T11:21:32;8.43;;;3.90;;
6517;SDS011;3292;48.944;9.240;2023-06-01T11:24:03;5.82;;;4.10;;
6517;SDS011;3292;48.944;9.240;2023-06-01T11:26:34;4.32;;;3.90;;
6517;SDS011;3292;48.944;9.240;2023-06-01T11:29:03;7.65;;;4.03;;
6517;SDS011;3292;48.944;9.240;2023-06-01T11:31:37;7.55;;;4.40;;
6517;SDS011;3292;48.944;9.240;2023-06-01T11:34:06;4.80;;;3.63;;
6517;SDS011;3292;48.944;9.240;2023-06-01T11:36:37;4.20;;;3.80;;
6517;SDS011;3292;48.944;9.240;2023-06-01T11:39:15;5.93;;;3.80;;
6517;SDS011;3292;48.944;9.240;2023-06-01T11:41:45;5.00;;;3.90;;
6517;SDS011;3292;48.944;9.240;2023-06-01T11:44:12;5.97;;;4.50;;
6517;SDS011;3292;48.944;9.240;2023-06-01T11:46:49;6.03;;;4.05;;
6517;SDS011;3292;48.944;9.240;2023-06-01T11:49:19;8.35;;;4.28;;
6517;SDS011;3292;48.944;9.240;2023-06-01T11:51:46;5.70;;;3.90;;
6517;SDS011;3292;48.944;9.240;2023-06-01T11:54:15;8.23;;;4.07;;
6517;SDS011;3292;48.944;9.240;2023-06-01T11:56:42;5.63;;;3.88;;
6517;SDS011;3292;48.944;9.240;2023-06-01T11:59:10;6.47;;;3.80;;
6517;SDS011;3292;48.944;9.240;2023-06-01T12:01:41;3.97;;;3.28;;
6517;SDS011;3292;48.944;9.240;2023-06-01T12:04:11;5.55;;;3.38;;
6517;SDS011;3292;48.944;9.240;2023-06-01T12:06:40;5.68;;;3.92;;
6517;SDS011;3292;48.944;9.240;2023-06-01T12:09:08;3.78;;;3.40;;
6517;SDS011;3292;48.944;9.240;2023-06-01T12:11:36;4.57;;;3.60;;
6517;SDS011;3292;48.944;9.240;2023-06-01T12:14:03;5.97;;;3.88;;
6517;SDS011;3292;48.944;9.240;2023-06-01T12:19:26;6.30;;;3.42;;
6517;SDS011;3292;48.944;9.240;2023-06-01T12:21:57;5.30;;;3.40;;
6517;SDS011;3292;48.944;9.240;2023-06-01T12:24:27;4.60;;;3.38;;
6517;SDS011;3292;48.944;9.240;2023-06-01T12:26:56;3.90;;;3.17;;
6517;SDS011;3292;48.944;9.240;2023-06-01T12:29:36;4.53;;;3.28;;
6517;SDS011;3292;48.944;9.240;2023-06-01T12:32:04;4.65;;;3.58;;
6517;SDS011;3292;48.944;9.240;2023-06-01T12:34:32;3.72;;;3.05;;
6517;SDS011;3292;48.944;9.240;2023-06-01T12:37:11;5.80;;;3.28;;
6517;SDS011;3292;48.944;9.240;2023-06-01T12:39:42;5.68;;;3.50;;
6517;SDS011;3292;48.944;9.240;2023-06-01T12:42:09;4.15;;;3.38;;
6517;SDS011;3292;48.944;9.240;2023-06-01T12:44:37;3.85;;;3.20;;
6517;SDS011;3292;48.944;9.240;2023-06-01T12:47:06;5.72;;;3.03;;
6517;SDS011;3292;48.944;9.240;2023-06-01T12:49:33;8.35;;;3.38;;
6517;SDS011;3292;48.944;9.240;2023-06-01T12:52:02;6.35;;;3.28;;
6517;SDS011;3292;48.944;9.240;2023-06-01T12:54:31;4.25;;;3.00;;
6517;SDS011;3292;48.944;9.240;2023-06-01T12:56:58;4.32;;;2.78;;
6517;SDS011;3292;48.944;9.240;2023-06-01T12:59:25;8.20;;;3.30;;
6517;SDS011;3292;48.944;9.240;2023-06-01T13:01:52;4.50;;;3.35;;
6517;SDS011;3292;48.944;9.240;2023-06-01T13:04:19;4.75;;;3.50;;
6517;SDS011;3292;48.944;9.240;2023-06-01T13:06:46;4.30;;;2.90;;
6517;SDS011;3292;48.944;9.240;2023-06-01T13:09:13;4.70;;;3.00;;
6517;SDS011;3292;48.944;9.240;2023-06-01T13:11:42;4.93;;;2.95;;
6517;SDS011;3292;48.944;9.240;2023-06-01T13:14:08;5.38;;;3.00;;
6517;SDS011;3292;48.944;9.240;2023-06-01T13:16:35;5.93;;;3.20;;
6517;SDS011;3292;48.944;9.240;2023-06-01T13:19:02;4.63;;;2.80;;
6517;SDS011;3292;48.944;9.240;2023-06-01T13:21:29;4.65;;;2.50;;
6517;SDS011;3292;48.944;9.240;2023-06-01T13:23:58;5.22;;;2.60;;
6517;SDS011;3292;48.944;9.240;2023-06-01T13:26:26;4.63;;;2.80;;
6517;SDS011;3292;48.944;9.240;2023-06-01T13:28:54;3.15;;;2.63;;
6517;SDS011;3292;48.944;9.240;2023-06-01T13:31:21;3.58;;;2.65;;
6517;SDS011;3292;48.944;9.240;2023-06-01T13:33:47;8.32;;;4.10;;
6517;SDS011;3292;48.944;9.240;2023-06-01T13:36:15;6.78;;;2.90;;
6517;SDS011;3292;48.944;9.240;2023-06-01T13:38:41;5.25;;;2.60;;
6517;SDS011;3292;48.944;9.240;2023-06-01T13:41:08;6.35;;;2.63;;
6517;SDS011;3292;48.944;9.240;2023-06-01T13:43:35;4.57;;;2.60;;
6517;SDS011;3292;48.944;9.240;2023-06-01T13:46:04;5.72;;;2.92;;
6517;SDS011;3292;48.944;9.240;2023-06-01T13:48:32;4.22;;;2.40;;
6517;SDS011;3292;48.944;9.240;2023-06-01T13:50:59;5.15;;;2.47;;
6517;SDS011;3292;48.944;9.240;2023-06-01T13:53:26;5.43;;;3.00;;
6517;SDS011;3292;48.944;9.240;2023-06-01T13:55:53;5.00;;;2.80;;
6517;SDS011;3292;48.944;9.240;2023-06-01T13:58:20;5.28;;;2.67;;
6517;SDS011;3292;48.944;9.240;2023-06-01T14:00:47;4.28;;;2.75;;
6517;SDS011;3292;48.944;9.240;2023-06-01T14:03:15;4.75;;;2.65;;
6517;SDS011;3292;48.944;9.240;2023-06-01T14:05:42;4.50;;;2.80;;
6517;SDS011;3292;48.944;9.240;2023-06-01T14:08:09;6.35;;;2.90;;
6517;SDS011;3292;48.944;9.240;2023-06-01T14:10:36;2.58;;;2.28;;
6517;SDS011;3292;48.944;9.240;2023-06-01T14:13:02;4.78;;;2.50;;
6517;SDS011;3292;48.944;9.240;2023-06-01T14:15:29;4.30;;;2.45;;
6517;SDS011;3292;48.944;9.240;2023-06-01T14:17:56;3.83;;;2.60;;
6517;SDS011;3292;48.944;9.240;2023-06-01T14:20:24;4.63;;;2.30;;
6517;SDS011;3292;48.944;9.240;2023-06-01T14:22:51;5.72;;;2.65;;
6517;SDS011;3292;48.944;9.240;2023-06-01T14:25:18;4.30;;;2.60;;
6517;SDS011;3292;48.944;9.240;2023-06-01T14:27:45;3.47;;;2.38;;
6517;SDS011;3292;48.944;9.240;2023-06-01T14:30:12;7.40;;;2.75;;
6517;SDS011;3292;48.944;9.240;2023-06-01T14:32:39;5.25;;;2.40;;
6517;SDS011;3292;48.944;9.240;2023-06-01T14:35:06;3.20;;;2.30;;
6517;SDS011;3292;48.944;9.240;2023-06-01T14:37:35;2.90;;;2.20;;
6517;SDS011;3292;48.944;9.240;2023-06-01T14:40:02;3.90;;;2.63;;
6517;SDS011;3292;48.944;9.240;2023-06-01T14:42:30;3.15;;;2.10;;
6517;SDS011;3292;48.944;9.240;2023-06-01T14:44:56;2.85;;;2.40;;
6517;SDS011;3292;48.944;9.240;2023-06-01T14:47:23;3.83;;;2.10;;
6517;SDS011;3292;48.944;9.240;2023-06-01T14:49:50;7.10;;;2.25;;
6517;SDS011;3292;48.944;9.240;2023-06-01T14:52:17;3.28;;;2.13;;
6517;SDS011;3292;48.944;9.240;2023-06-01T14:54:45;4.72;;;2.55;;
6517;SDS011;3292;48.944;9.240;2023-06-01T14:57:13;4.57;;;2.20;;
6517;SDS011;3292;48.944;9.240;2023-06-01T14:59:40;3.75;;;2.40;;
6517;SDS011;3292;48.944;9.240;2023-06-01T15:02:07;3.35;;;2.38;;
6517;SDS011;3292;48.944;9.240;2023-06-01T15:04:34;2.65;;;2.00;;
6517;SDS011;3292;48.944;9.240;2023-06-01T15:07:01;4.90;;;2.30;;
6517;SDS011;3292;48.944;9.240;2023-06-01T15:09:28;2.88;;;2.30;;
6517;SDS011;3292;48.944;9.240;2023-06-01T15:11:56;3.10;;;2.20;;
6517;SDS011;3292;48.944;9.240;2023-06-01T15:14:23;3.72;;;2.38;;
6517;SDS011;3292;48.944;9.240;2023-06-01T15:16:50;4.10;;;2.30;;
6517;SDS011;3292;48.944;9.240;2023-06-01T15:19:17;3.85;;;2.15;;
6517;SDS011;3292;48.944;9.240;2023-06-01T15:21:43;6.13;;;2.55;;
6517;SDS011;3292;48.944;9.240;2023-06-01T15:24:10;2.60;;;2.10;;
6517;SDS011;3292;48.944;9.240;2023-06-01T15:26:37;2.50;;;2.00;;
6517;SDS011;3292;48.944;9.240;2023-06-01T15:29:06;3.42;;;2.10;;
6517;SDS011;3292;48.944;9.240;2023-06-01T15:31:32;2.83;;;2.33;;
6517;SDS011;3292;48.944;9.240;2023-06-01T15:33:59;3.20;;;2.10;;
6517;SDS011;3292;48.944;9.240;2023-06-01T15:36:26;4.88;;;2.40;;
6517;SDS011;3292;48.944;9.240;2023-06-01T15:38:53;3.53;;;2.33;;